sensor_id;sensor_type;location;lat;lon;timestamp;P1;durP1;ratioP1;P2;durP2;ratioP2
52031;SDS011;38044;45.148;39.604;2022-09-12T00:01:16;6.68;;;3.97;;
52031;SDS011;38044;45.148;39.604;2022-09-12T00:03:45;9.15;;;4.18;;
52031;SDS011;38044;45.148;39.604;2022-09-12T00:06:16;10.43;;;4.97;;
52031;SDS011;38044;45.148;39.604;2022-09-12T00:08:44;8.47;;;4.00;;
52031;SDS011;38044;45.148;39.604;2022-09-12T00:11:10;9.95;;;4.53;;
52031;SDS011;38044;45.148;39.604;2022-09-12T00:13:38;9.50;;;4.40;;
52031;SDS011;38044;45.148;39.604;2022-09-12T00:16:05;9.30;;;4.70;;
52031;SDS011;38044;45.148;39.604;2022-09-12T00:18:31;10.52;;;4.55;;
52031;SDS011;38044;45.148;39.604;2022-09-12T00:21:00;10.23;;;4.72;;
52031;SDS011;38044;45.148;39.604;2022-09-12T00:23:29;13.07;;;5.00;;
52031;SDS011;38044;45.148;39.604;2022-09-12T00:25:55;10.43;;;5.35;;
52031;SDS011;38044;45.148;39.604;2022-09-12T00:28:21;13.98;;;5.20;;
52031;SDS011;38044;45.148;39.604;2022-09-12T00:30:47;9.27;;;4.70;;
52031;SDS011;38044;45.148;39.604;2022-09-12T00:33:14;8.73;;;4.57;;
52031;SDS011;38044;45.148;39.604;2022-09-12T00:35:44;8.93;;;4.40;;
52031;SDS011;38044;45.148;39.604;2022-09-12T00:38:17;8.68;;;4.20;;
52031;SDS011;38044;45.148;39.604;2022-09-12T00:40:44;8.70;;;4.78;;
52031;SDS011;38044;45.148;39.604;2022-09-12T00:43:31;7.72;;;4.32;;
52031;SDS011;38044;45.148;39.604;2022-09-12T00:46:26;10.55;;;5.25;;
52031;SDS011;38044;45.148;39.604;2022-09-12T00:49:14;9.23;;;4.93;;
52031;SDS011;38044;45.148;39.604;2022-09-12T00:51:49;8.18;;;5.00;;
52031;SDS011;38044;45.148;39.604;2022-09-12T00:54:21;9.50;;;4.95;;
52031;SDS011;38044;45.148;39.604;2022-09-12T00:56:50;9.20;;;4.43;;
52031;SDS011;38044;45.148;39.604;2022-09-12T00:59:27;10.63;;;4.97;;
52031;SDS011;38044;45.148;39.604;2022-09-12T01:01:56;9.93;;;5.07;;
52031;SDS011;38044;45.148;39.604;2022-09-12T01:04:22;12.35;;;4.97;;
52031;SDS011;38044;45.148;39.604;2022-09-12T01:06:51;10.05;;;5.20;;
52031;SDS011;38044;45.148;39.604;2022-09-12T01:09:18;8.57;;;4.57;;
52031;SDS011;38044;45.148;39.604;2022-09-12T01:11:46;15.35;;;4.70;;
52031;SDS011;38044;45.148;39.604;2022-09-12T01:14:13;9.10;;;4.50;;
52031;SDS011;38044;45.148;39.604;2022-09-12T01:16:41;9.88;;;4.47;;
52031;SDS011;38044;45.148;39.604;2022-09-12T01:22:18;5.60;;;3.92;;
52031;SDS011;38044;45.148;39.604;2022-09-12T01:32:57;9.70;;;5.05;;
52031;SDS011;38044;45.148;39.604;2022-09-12T01:36:50;6.22;;;5.03;;
52031;SDS011;38044;45.148;39.604;2022-09-12T01:42:03;7.43;;;5.07;;
52031;SDS011;38044;45.148;39.604;2022-09-12T01:47:40;11.90;;;5.20;;
52031;SDS011;38044;45.148;39.604;2022-09-12T01:50:19;9.18;;;4.93;;
52031;SDS011;38044;45.148;39.604;2022-09-12T01:52:56;13.30;;;5.28;;
52031;SDS011;38044;45.148;39.604;2022-09-12T01:55:40;8.90;;;5.15;;
52031;SDS011;38044;45.148;39.604;2022-09-12T01:58:16;10.68;;;5.30;;
52031;SDS011;38044;45.148;39.604;2022-09-12T02:00:50;10.25;;;5.40;;
52031;SDS011;38044;45.148;39.604;2022-09-12T02:03:26;8.45;;;5.10;;
52031;SDS011;38044;45.148;39.604;2022-09-12T02:09:14;13.68;;;5.55;;
52031;SDS011;38044;45.148;39.604;2022-09-12T02:11:46;9.77;;;5.47;;
52031;SDS011;38044;45.148;39.604;2022-09-12T02:14:20;7.90;;;5.05;;
52031;SDS011;38044;45.148;39.604;2022-09-12T02:16:57;13.70;;;5.63;;
52031;SDS011;38044;45.148;39.604;2022-09-12T02:19:32;6.10;;;4.93;;
52031;SDS011;38044;45.148;39.604;2022-09-12T02:22:01;6.97;;;5.15;;
52031;SDS011;38044;45.148;39.604;2022-09-12T02:24:33;10.63;;;4.60;;
52031;SDS011;38044;45.148;39.604;2022-09-12T02:27:17;8.50;;;6.05;;
52031;SDS011;38044;45.148;39.604;2022-09-12T02:29:48;170.07;;;14.43;;
52031;SDS011;38044;45.148;39.604;2022-09-12T02:35:02;10.45;;;5.72;;
52031;SDS011;38044;45.148;39.604;2022-09-12T02:37:49;10.27;;;5.68;;
52031;SDS011;38044;45.148;39.604;2022-09-12T02:40:29;7.35;;;5.30;;
52031;SDS011;38044;45.148;39.604;2022-09-12T02:42:55;9.35;;;5.97;;
52031;SDS011;38044;45.148;39.604;2022-09-12T02:45:22;8.95;;;5.53;;
52031;SDS011;38044;45.148;39.604;2022-09-12T02:47:49;11.75;;;5.85;;
52031;SDS011;38044;45.148;39.604;2022-09-12T02:50:21;9.35;;;6.25;;
52031;SDS011;38044;45.148;39.604;2022-09-12T02:52:47;10.15;;;5.90;;
52031;SDS011;38044;45.148;39.604;2022-09-12T02:55:15;10.82;;;6.05;;
52031;SDS011;38044;45.148;39.604;2022-09-12T02:57:41;10.60;;;5.65;;
52031;SDS011;38044;45.148;39.604;2022-09-12T03:00:07;10.77;;;6.30;;
52031;SDS011;38044;45.148;39.604;2022-09-12T03:10:36;9.18;;;6.50;;
52031;SDS011;38044;45.148;39.604;2022-09-12T03:13:17;9.85;;;6.25;;
52031;SDS011;38044;45.148;39.604;2022-09-12T03:21:27;10.85;;;6.30;;
52031;SDS011;38044;45.148;39.604;2022-09-12T03:26:46;14.40;;;6.30;;
52031;SDS011;38044;45.148;39.604;2022-09-12T03:29:17;17.65;;;6.25;;
52031;SDS011;38044;45.148;39.604;2022-09-12T03:31:51;9.93;;;5.75;;
52031;SDS011;38044;45.148;39.604;2022-09-12T03:34:20;14.63;;;6.30;;
52031;SDS011;38044;45.148;39.604;2022-09-12T03:36:47;14.32;;;6.05;;
52031;SDS011;38044;45.148;39.604;2022-09-12T03:39:13;11.00;;;6.05;;
52031;SDS011;38044;45.148;39.604;2022-09-12T03:41:39;14.55;;;6.10;;
52031;SDS011;38044;45.148;39.604;2022-09-12T03:44:05;8.60;;;5.93;;
52031;SDS011;38044;45.148;39.604;2022-09-12T03:46:31;11.13;;;5.70;;
52031;SDS011;38044;45.148;39.604;2022-09-12T03:48:57;12.65;;;6.82;;
52031;SDS011;38044;45.148;39.604;2022-09-12T03:51:23;11.93;;;6.32;;
52031;SDS011;38044;45.148;39.604;2022-09-12T03:53:49;10.00;;;6.45;;
52031;SDS011;38044;45.148;39.604;2022-09-12T03:56:14;11.02;;;6.00;;
52031;SDS011;38044;45.148;39.604;2022-09-12T03:58:41;12.48;;;6.55;;
52031;SDS011;38044;45.148;39.604;2022-09-12T04:01:07;13.63;;;6.03;;
52031;SDS011;38044;45.148;39.604;2022-09-12T04:03:44;15.73;;;7.25;;
52031;SDS011;38044;45.148;39.604;2022-09-12T04:06:13;19.40;;;6.85;;
52031;SDS011;38044;45.148;39.604;2022-09-12T04:08:41;18.05;;;7.78;;
52031;SDS011;38044;45.148;39.604;2022-09-12T04:11:12;17.73;;;7.22;;
52031;SDS011;38044;45.148;39.604;2022-09-12T04:13:40;30.52;;;9.80;;
52031;SDS011;38044;45.148;39.604;2022-09-12T04:16:07;22.88;;;9.20;;
52031;SDS011;38044;45.148;39.604;2022-09-12T04:18:33;20.92;;;11.98;;
52031;SDS011;38044;45.148;39.604;2022-09-12T04:21:06;30.98;;;15.57;;
52031;SDS011;38044;45.148;39.604;2022-09-12T04:23:34;29.83;;;13.50;;
52031;SDS011;38044;45.148;39.604;2022-09-12T04:26:00;17.20;;;7.38;;
52031;SDS011;38044;45.148;39.604;2022-09-12T04:28:30;16.77;;;8.77;;
52031;SDS011;38044;45.148;39.604;2022-09-12T04:31:00;18.13;;;8.65;;
52031;SDS011;38044;45.148;39.604;2022-09-12T04:33:27;28.95;;;8.98;;
52031;SDS011;38044;45.148;39.604;2022-09-12T04:35:52;23.17;;;9.18;;
52031;SDS011;38044;45.148;39.604;2022-09-12T04:38:18;17.27;;;8.77;;
52031;SDS011;38044;45.148;39.604;2022-09-12T04:40:44;20.63;;;9.25;;
52031;SDS011;38044;45.148;39.604;2022-09-12T04:43:10;19.20;;;8.63;;
52031;SDS011;38044;45.148;39.604;2022-09-12T04:45:36;17.02;;;8.93;;
52031;SDS011;38044;45.148;39.604;2022-09-12T04:48:01;13.20;;;8.10;;
52031;SDS011;38044;45.148;39.604;2022-09-12T04:50:27;47.13;;;11.00;;
52031;SDS011;38044;45.148;39.604;2022-09-12T04:52:53;27.08;;;12.23;;
52031;SDS011;38044;45.148;39.604;2022-09-12T04:55:20;20.35;;;9.75;;
52031;SDS011;38044;45.148;39.604;2022-09-12T04:57:47;13.90;;;8.48;;
52031;SDS011;38044;45.148;39.604;2022-09-12T05:00:13;21.23;;;9.85;;
52031;SDS011;38044;45.148;39.604;2022-09-12T05:02:40;25.77;;;12.23;;
52031;SDS011;38044;45.148;39.604;2022-09-12T05:05:06;24.27;;;10.95;;
52031;SDS011;38044;45.148;39.604;2022-09-12T05:07:33;20.55;;;9.02;;
52031;SDS011;38044;45.148;39.604;2022-09-12T05:09:59;18.80;;;10.35;;
52031;SDS011;38044;45.148;39.604;2022-09-12T05:12:26;20.27;;;11.48;;
52031;SDS011;38044;45.148;39.604;2022-09-12T05:14:52;30.90;;;16.10;;
52031;SDS011;38044;45.148;39.604;2022-09-12T05:17:18;26.73;;;13.73;;
52031;SDS011;38044;45.148;39.604;2022-09-12T05:19:44;25.80;;;11.95;;
52031;SDS011;38044;45.148;39.604;2022-09-12T05:22:09;30.80;;;15.05;;
52031;SDS011;38044;45.148;39.604;2022-09-12T05:24:35;24.98;;;11.85;;
52031;SDS011;38044;45.148;39.604;2022-09-12T05:27:07;34.70;;;17.08;;
52031;SDS011;38044;45.148;39.604;2022-09-12T05:29:33;46.67;;;22.35;;
52031;SDS011;38044;45.148;39.604;2022-09-12T05:32:00;28.35;;;13.00;;
52031;SDS011;38044;45.148;39.604;2022-09-12T05:34:27;28.50;;;14.57;;
52031;SDS011;38044;45.148;39.604;2022-09-12T05:36:53;84.63;;;31.65;;
52031;SDS011;38044;45.148;39.604;2022-09-12T05:39:19;28.02;;;13.85;;
52031;SDS011;38044;45.148;39.604;2022-09-12T05:41:46;24.55;;;12.95;;
52031;SDS011;38044;45.148;39.604;2022-09-12T05:44:12;28.45;;;14.00;;
52031;SDS011;38044;45.148;39.604;2022-09-12T05:46:39;39.38;;;19.35;;
52031;SDS011;38044;45.148;39.604;2022-09-12T05:49:08;28.77;;;16.50;;
52031;SDS011;38044;45.148;39.604;2022-09-12T05:51:40;49.53;;;15.52;;
52031;SDS011;38044;45.148;39.604;2022-09-12T05:56:37;36.08;;;14.73;;
52031;SDS011;38044;45.148;39.604;2022-09-12T05:59:05;32.70;;;12.48;;
52031;SDS011;38044;45.148;39.604;2022-09-12T06:01:39;27.88;;;13.18;;
52031;SDS011;38044;45.148;39.604;2022-09-12T06:04:05;33.97;;;15.10;;
52031;SDS011;38044;45.148;39.604;2022-09-12T06:06:34;36.88;;;20.27;;
52031;SDS011;38044;45.148;39.604;2022-09-12T06:09:03;23.33;;;12.82;;
52031;SDS011;38044;45.148;39.604;2022-09-12T06:11:31;20.08;;;11.43;;
52031;SDS011;38044;45.148;39.604;2022-09-12T06:13:59;24.05;;;14.93;;
52031;SDS011;38044;45.148;39.604;2022-09-12T06:16:26;26.65;;;14.75;;
52031;SDS011;38044;45.148;39.604;2022-09-12T06:18:55;28.00;;;15.13;;
52031;SDS011;38044;45.148;39.604;2022-09-12T06:21:23;34.63;;;18.48;;
52031;SDS011;38044;45.148;39.604;2022-09-12T06:23:51;36.58;;;18.92;;
52031;SDS011;38044;45.148;39.604;2022-09-12T06:26:18;37.03;;;19.88;;
52031;SDS011;38044;45.148;39.604;2022-09-12T06:28:47;29.02;;;14.35;;
52031;SDS011;38044;45.148;39.604;2022-09-12T06:31:18;66.35;;;37.20;;
52031;SDS011;38044;45.148;39.604;2022-09-12T06:33:46;31.38;;;17.58;;
52031;SDS011;38044;45.148;39.604;2022-09-12T06:36:18;20.90;;;12.60;;
52031;SDS011;38044;45.148;39.604;2022-09-12T06:39:05;30.02;;;14.45;;
52031;SDS011;38044;45.148;39.604;2022-09-12T06:41:35;24.80;;;13.52;;
52031;SDS011;38044;45.148;39.604;2022-09-12T06:44:01;32.33;;;17.88;;
52031;SDS011;38044;45.148;39.604;2022-09-12T06:46:28;31.50;;;19.02;;
52031;SDS011;38044;45.148;39.604;2022-09-12T06:48:55;33.53;;;21.38;;
52031;SDS011;38044;45.148;39.604;2022-09-12T06:51:23;34.10;;;20.42;;
52031;SDS011;38044;45.148;39.604;2022-09-12T06:53:50;32.03;;;19.60;;
52031;SDS011;38044;45.148;39.604;2022-09-12T06:56:19;29.83;;;19.10;;
52031;SDS011;38044;45.148;39.604;2022-09-12T06:58:47;31.17;;;19.58;;
52031;SDS011;38044;45.148;39.604;2022-09-12T07:03:42;31.85;;;19.02;;
52031;SDS011;38044;45.148;39.604;2022-09-12T07:06:12;31.10;;;19.52;;
52031;SDS011;38044;45.148;39.604;2022-09-12T07:08:40;33.45;;;20.92;;
52031;SDS011;38044;45.148;39.604;2022-09-12T07:11:10;30.92;;;20.27;;
52031;SDS011;38044;45.148;39.604;2022-09-12T07:13:36;38.45;;;24.15;;
52031;SDS011;38044;45.148;39.604;2022-09-12T07:16:03;30.08;;;22.20;;
52031;SDS011;38044;45.148;39.604;2022-09-12T07:18:33;30.50;;;19.52;;
52031;SDS011;38044;45.148;39.604;2022-09-12T07:21:00;29.50;;;18.38;;
52031;SDS011;38044;45.148;39.604;2022-09-12T07:23:27;37.00;;;25.63;;
52031;SDS011;38044;45.148;39.604;2022-09-12T07:25:54;18.95;;;13.82;;
52031;SDS011;38044;45.148;39.604;2022-09-12T07:28:24;21.02;;;12.45;;
52031;SDS011;38044;45.148;39.604;2022-09-12T07:30:51;16.75;;;12.77;;
52031;SDS011;38044;45.148;39.604;2022-09-12T07:33:21;20.10;;;12.63;;
52031;SDS011;38044;45.148;39.604;2022-09-12T07:35:48;84.80;;;42.17;;
52031;SDS011;38044;45.148;39.604;2022-09-12T07:38:14;18.98;;;14.93;;
52031;SDS011;38044;45.148;39.604;2022-09-12T07:40:41;21.35;;;15.55;;
52031;SDS011;38044;45.148;39.604;2022-09-12T07:43:07;19.40;;;12.40;;
52031;SDS011;38044;45.148;39.604;2022-09-12T07:45:33;18.88;;;12.60;;
52031;SDS011;38044;45.148;39.604;2022-09-12T07:47:59;20.88;;;13.02;;
52031;SDS011;38044;45.148;39.604;2022-09-12T07:50:25;18.48;;;13.13;;
52031;SDS011;38044;45.148;39.604;2022-09-12T07:52:52;21.95;;;12.88;;
52031;SDS011;38044;45.148;39.604;2022-09-12T07:55:19;20.50;;;12.85;;
52031;SDS011;38044;45.148;39.604;2022-09-12T07:57:49;19.35;;;13.43;;
52031;SDS011;38044;45.148;39.604;2022-09-12T08:00:16;22.58;;;12.52;;
52031;SDS011;38044;45.148;39.604;2022-09-12T08:02:42;20.58;;;14.68;;
52031;SDS011;38044;45.148;39.604;2022-09-12T08:05:08;19.70;;;13.52;;
52031;SDS011;38044;45.148;39.604;2022-09-12T08:07:35;19.52;;;12.88;;
52031;SDS011;38044;45.148;39.604;2022-09-12T08:10:01;16.55;;;12.48;;
52031;SDS011;38044;45.148;39.604;2022-09-12T08:12:27;48.05;;;34.22;;
52031;SDS011;38044;45.148;39.604;2022-09-12T08:14:53;28.63;;;18.50;;
52031;SDS011;38044;45.148;39.604;2022-09-12T08:17:19;27.08;;;13.88;;
52031;SDS011;38044;45.148;39.604;2022-09-12T08:19:45;19.83;;;12.18;;
52031;SDS011;38044;45.148;39.604;2022-09-12T08:22:11;27.50;;;19.42;;
52031;SDS011;38044;45.148;39.604;2022-09-12T08:24:37;22.77;;;14.15;;
52031;SDS011;38044;45.148;39.604;2022-09-12T08:27:04;26.90;;;15.50;;
52031;SDS011;38044;45.148;39.604;2022-09-12T08:29:31;37.47;;;18.52;;
52031;SDS011;38044;45.148;39.604;2022-09-12T08:31:57;26.25;;;15.55;;
52031;SDS011;38044;45.148;39.604;2022-09-12T08:34:22;29.10;;;15.48;;
52031;SDS011;38044;45.148;39.604;2022-09-12T08:36:49;27.38;;;14.98;;
52031;SDS011;38044;45.148;39.604;2022-09-12T08:39:18;24.35;;;15.05;;
52031;SDS011;38044;45.148;39.604;2022-09-12T08:41:47;30.13;;;18.15;;
52031;SDS011;38044;45.148;39.604;2022-09-12T08:47:18;25.00;;;14.68;;
52031;SDS011;38044;45.148;39.604;2022-09-12T08:55:24;23.50;;;14.10;;
52031;SDS011;38044;45.148;39.604;2022-09-12T08:58:00;33.15;;;14.23;;
52031;SDS011;38044;45.148;39.604;2022-09-12T09:01:22;21.05;;;14.27;;
52031;SDS011;38044;45.148;39.604;2022-09-12T09:12:24;31.88;;;15.05;;
52031;SDS011;38044;45.148;39.604;2022-09-12T09:17:53;19.20;;;11.80;;
52031;SDS011;38044;45.148;39.604;2022-09-12T09:28:21;22.92;;;11.18;;
52031;SDS011;38044;45.148;39.604;2022-09-12T09:30:53;19.05;;;11.85;;
52031;SDS011;38044;45.148;39.604;2022-09-12T09:33:21;16.75;;;10.75;;
52031;SDS011;38044;45.148;39.604;2022-09-12T09:38:49;19.75;;;9.95;;
52031;SDS011;38044;45.148;39.604;2022-09-12T09:41:35;19.92;;;10.45;;
52031;SDS011;38044;45.148;39.604;2022-09-12T09:44:10;20.23;;;10.88;;
52031;SDS011;38044;45.148;39.604;2022-09-12T09:46:36;15.32;;;9.75;;
52031;SDS011;38044;45.148;39.604;2022-09-12T09:49:01;22.90;;;13.68;;
52031;SDS011;38044;45.148;39.604;2022-09-12T09:51:37;27.00;;;12.80;;
52031;SDS011;38044;45.148;39.604;2022-09-12T09:54:09;21.40;;;11.70;;
52031;SDS011;38044;45.148;39.604;2022-09-12T09:56:42;27.17;;;13.57;;
52031;SDS011;38044;45.148;39.604;2022-09-12T09:59:10;33.55;;;16.00;;
52031;SDS011;38044;45.148;39.604;2022-09-12T10:01:36;26.40;;;16.50;;
52031;SDS011;38044;45.148;39.604;2022-09-12T10:04:10;26.75;;;14.57;;
52031;SDS011;38044;45.148;39.604;2022-09-12T10:06:49;23.88;;;13.32;;
52031;SDS011;38044;45.148;39.604;2022-09-12T10:09:18;24.38;;;13.32;;
52031;SDS011;38044;45.148;39.604;2022-09-12T10:11:48;30.77;;;12.18;;
52031;SDS011;38044;45.148;39.604;2022-09-12T10:14:34;18.42;;;10.15;;
52031;SDS011;38044;45.148;39.604;2022-09-12T10:17:26;16.02;;;9.32;;
52031;SDS011;38044;45.148;39.604;2022-09-12T10:20:03;14.43;;;8.85;;
52031;SDS011;38044;45.148;39.604;2022-09-12T10:22:29;21.83;;;10.00;;
52031;SDS011;38044;45.148;39.604;2022-09-12T10:24:56;30.20;;;10.73;;
52031;SDS011;38044;45.148;39.604;2022-09-12T10:27:25;18.15;;;10.15;;
52031;SDS011;38044;45.148;39.604;2022-09-12T10:29:59;11.63;;;8.32;;
52031;SDS011;38044;45.148;39.604;2022-09-12T10:35:00;17.38;;;9.70;;
52031;SDS011;38044;45.148;39.604;2022-09-12T10:37:32;17.13;;;9.50;;
52031;SDS011;38044;45.148;39.604;2022-09-12T10:40:00;23.75;;;11.25;;
52031;SDS011;38044;45.148;39.604;2022-09-12T10:42:45;23.48;;;13.05;;
52031;SDS011;38044;45.148;39.604;2022-09-12T10:45:32;33.58;;;17.25;;
52031;SDS011;38044;45.148;39.604;2022-09-12T10:48:01;17.67;;;10.57;;
52031;SDS011;38044;45.148;39.604;2022-09-12T10:50:46;21.52;;;12.98;;
52031;SDS011;38044;45.148;39.604;2022-09-12T10:55:56;16.98;;;8.18;;
52031;SDS011;38044;45.148;39.604;2022-09-12T11:10:02;13.10;;;7.90;;
52031;SDS011;38044;45.148;39.604;2022-09-12T11:15:48;12.05;;;7.15;;
52031;SDS011;38044;45.148;39.604;2022-09-12T11:18:25;13.30;;;7.70;;
52031;SDS011;38044;45.148;39.604;2022-09-12T11:32:05;9.18;;;6.13;;
52031;SDS011;38044;45.148;39.604;2022-09-12T11:42:52;9.05;;;5.40;;
52031;SDS011;38044;45.148;39.604;2022-09-12T11:45:52;10.98;;;5.43;;
52031;SDS011;38044;45.148;39.604;2022-09-12T11:48:31;12.57;;;6.22;;
52031;SDS011;38044;45.148;39.604;2022-09-12T11:51:04;7.55;;;5.32;;
52031;SDS011;38044;45.148;39.604;2022-09-12T11:53:39;8.75;;;5.22;;
52031;SDS011;38044;45.148;39.604;2022-09-12T11:56:13;12.48;;;5.82;;
52031;SDS011;38044;45.148;39.604;2022-09-12T11:58:43;8.60;;;4.18;;
52031;SDS011;38044;45.148;39.604;2022-09-12T12:01:20;11.55;;;5.22;;
52031;SDS011;38044;45.148;39.604;2022-09-12T12:03:51;8.82;;;5.30;;
52031;SDS011;38044;45.148;39.604;2022-09-12T12:06:28;9.50;;;4.80;;
52031;SDS011;38044;45.148;39.604;2022-09-12T12:08:56;11.13;;;5.40;;
52031;SDS011;38044;45.148;39.604;2022-09-12T12:11:26;9.85;;;5.28;;
52031;SDS011;38044;45.148;39.604;2022-09-12T12:14:01;10.82;;;5.63;;
52031;SDS011;38044;45.148;39.604;2022-09-12T12:16:36;11.65;;;4.22;;
52031;SDS011;38044;45.148;39.604;2022-09-12T12:21:42;7.47;;;3.95;;
52031;SDS011;38044;45.148;39.604;2022-09-12T12:24:19;5.07;;;3.95;;
52031;SDS011;38044;45.148;39.604;2022-09-12T12:36:56;6.22;;;4.40;;
52031;SDS011;38044;45.148;39.604;2022-09-12T12:41:56;7.80;;;4.13;;
52031;SDS011;38044;45.148;39.604;2022-09-12T12:57:54;9.10;;;3.03;;
52031;SDS011;38044;45.148;39.604;2022-09-12T13:00:26;5.30;;;3.30;;
52031;SDS011;38044;45.148;39.604;2022-09-12T13:03:02;7.70;;;2.90;;
52031;SDS011;38044;45.148;39.604;2022-09-12T13:05:45;7.00;;;3.08;;
52031;SDS011;38044;45.148;39.604;2022-09-12T13:13:35;7.85;;;3.30;;
52031;SDS011;38044;45.148;39.604;2022-09-12T13:16:02;8.18;;;3.80;;
52031;SDS011;38044;45.148;39.604;2022-09-12T13:18:49;3.63;;;2.95;;
52031;SDS011;38044;45.148;39.604;2022-09-12T13:21:15;9.18;;;3.60;;
52031;SDS011;38044;45.148;39.604;2022-09-12T13:23:42;5.88;;;3.55;;
52031;SDS011;38044;45.148;39.604;2022-09-12T13:26:13;6.00;;;3.28;;
52031;SDS011;38044;45.148;39.604;2022-09-12T13:28:47;6.13;;;2.80;;
52031;SDS011;38044;45.148;39.604;2022-09-12T13:31:21;9.88;;;4.00;;
52031;SDS011;38044;45.148;39.604;2022-09-12T13:33:51;7.75;;;3.28;;
52031;SDS011;38044;45.148;39.604;2022-09-12T13:36:29;8.88;;;3.35;;
52031;SDS011;38044;45.148;39.604;2022-09-12T13:39:13;6.65;;;2.95;;
52031;SDS011;38044;45.148;39.604;2022-09-12T13:44:41;8.50;;;5.07;;
52031;SDS011;38044;45.148;39.604;2022-09-12T13:47:15;11.57;;;3.33;;
52031;SDS011;38044;45.148;39.604;2022-09-12T13:50:04;6.95;;;4.00;;
52031;SDS011;38044;45.148;39.604;2022-09-12T13:52:32;7.65;;;3.42;;
52031;SDS011;38044;45.148;39.604;2022-09-12T13:55:05;7.03;;;3.70;;
52031;SDS011;38044;45.148;39.604;2022-09-12T13:57:38;7.80;;;3.40;;
52031;SDS011;38044;45.148;39.604;2022-09-12T14:02:44;9.07;;;2.97;;
52031;SDS011;38044;45.148;39.604;2022-09-12T14:05:19;6.80;;;2.53;;
52031;SDS011;38044;45.148;39.604;2022-09-12T14:07:51;4.93;;;2.65;;
52031;SDS011;38044;45.148;39.604;2022-09-12T14:10:22;5.30;;;2.50;;
52031;SDS011;38044;45.148;39.604;2022-09-12T14:12:56;11.50;;;3.55;;
52031;SDS011;38044;45.148;39.604;2022-09-12T14:15:26;6.05;;;2.90;;
52031;SDS011;38044;45.148;39.604;2022-09-12T14:17:55;20.23;;;8.48;;
52031;SDS011;38044;45.148;39.604;2022-09-12T14:20:29;39.88;;;23.20;;
52031;SDS011;38044;45.148;39.604;2022-09-12T14:23:01;9.90;;;4.82;;
52031;SDS011;38044;45.148;39.604;2022-09-12T14:25:34;5.35;;;2.63;;
52031;SDS011;38044;45.148;39.604;2022-09-12T14:28:03;4.72;;;2.70;;
52031;SDS011;38044;45.148;39.604;2022-09-12T14:30:31;5.35;;;2.75;;
52031;SDS011;38044;45.148;39.604;2022-09-12T14:35:41;7.07;;;2.80;;
52031;SDS011;38044;45.148;39.604;2022-09-12T14:38:17;5.75;;;2.90;;
52031;SDS011;38044;45.148;39.604;2022-09-12T14:41:31;6.50;;;2.97;;
52031;SDS011;38044;45.148;39.604;2022-09-12T14:43:44;22.10;;;4.25;;
52031;SDS011;38044;45.148;39.604;2022-09-12T14:48:53;8.15;;;2.70;;
52031;SDS011;38044;45.148;39.604;2022-09-12T14:51:27;4.22;;;2.22;;
52031;SDS011;38044;45.148;39.604;2022-09-12T14:53:58;5.43;;;2.47;;
52031;SDS011;38044;45.148;39.604;2022-09-12T14:56:51;9.05;;;2.92;;
52031;SDS011;38044;45.148;39.604;2022-09-12T15:04:47;6.85;;;2.90;;
52031;SDS011;38044;45.148;39.604;2022-09-12T15:10:06;6.43;;;2.30;;
52031;SDS011;38044;45.148;39.604;2022-09-12T15:15:33;7.25;;;2.70;;
52031;SDS011;38044;45.148;39.604;2022-09-12T15:18:03;7.00;;;3.67;;
52031;SDS011;38044;45.148;39.604;2022-09-12T15:20:33;10.18;;;3.70;;
52031;SDS011;38044;45.148;39.604;2022-09-12T15:23:01;7.18;;;3.70;;
52031;SDS011;38044;45.148;39.604;2022-09-12T15:25:27;7.30;;;3.20;;
52031;SDS011;38044;45.148;39.604;2022-09-12T15:27:53;6.15;;;2.53;;
52031;SDS011;38044;45.148;39.604;2022-09-12T15:30:20;5.07;;;2.78;;
52031;SDS011;38044;45.148;39.604;2022-09-12T15:32:46;7.40;;;2.90;;
52031;SDS011;38044;45.148;39.604;2022-09-12T15:35:19;9.90;;;3.05;;
52031;SDS011;38044;45.148;39.604;2022-09-12T15:37:47;6.32;;;2.60;;
52031;SDS011;38044;45.148;39.604;2022-09-12T15:40:14;5.85;;;2.90;;
52031;SDS011;38044;45.148;39.604;2022-09-12T15:42:41;6.43;;;2.90;;
52031;SDS011;38044;45.148;39.604;2022-09-12T15:47:50;4.70;;;3.42;;
52031;SDS011;38044;45.148;39.604;2022-09-12T15:50:16;7.95;;;3.53;;
52031;SDS011;38044;45.148;39.604;2022-09-12T15:52:42;4.55;;;2.72;;
52031;SDS011;38044;45.148;39.604;2022-09-12T15:55:30;5.13;;;2.83;;
52031;SDS011;38044;45.148;39.604;2022-09-12T15:57:56;5.53;;;3.38;;
52031;SDS011;38044;45.148;39.604;2022-09-12T16:00:23;7.45;;;3.40;;
52031;SDS011;38044;45.148;39.604;2022-09-12T16:02:51;6.63;;;3.53;;
52031;SDS011;38044;45.148;39.604;2022-09-12T16:05:18;6.00;;;3.85;;
52031;SDS011;38044;45.148;39.604;2022-09-12T16:07:46;8.20;;;3.30;;
52031;SDS011;38044;45.148;39.604;2022-09-12T16:10:15;5.55;;;3.53;;
52031;SDS011;38044;45.148;39.604;2022-09-12T16:12:42;9.07;;;4.60;;
52031;SDS011;38044;45.148;39.604;2022-09-12T16:15:13;8.13;;;4.50;;
52031;SDS011;38044;45.148;39.604;2022-09-12T16:17:41;15.83;;;7.47;;
52031;SDS011;38044;45.148;39.604;2022-09-12T16:20:07;11.30;;;6.65;;
52031;SDS011;38044;45.148;39.604;2022-09-12T16:22:34;10.70;;;4.50;;
52031;SDS011;38044;45.148;39.604;2022-09-12T16:25:00;17.30;;;4.72;;
52031;SDS011;38044;45.148;39.604;2022-09-12T16:27:26;11.65;;;4.93;;
52031;SDS011;38044;45.148;39.604;2022-09-12T16:29:52;8.23;;;4.53;;
52031;SDS011;38044;45.148;39.604;2022-09-12T16:32:17;7.15;;;3.72;;
52031;SDS011;38044;45.148;39.604;2022-09-12T16:34:43;7.05;;;3.55;;
52031;SDS011;38044;45.148;39.604;2022-09-12T16:37:10;6.15;;;3.20;;
52031;SDS011;38044;45.148;39.604;2022-09-12T16:39:35;7.40;;;3.30;;
52031;SDS011;38044;45.148;39.604;2022-09-12T16:42:01;10.65;;;3.40;;
52031;SDS011;38044;45.148;39.604;2022-09-12T16:44:27;8.82;;;3.80;;
52031;SDS011;38044;45.148;39.604;2022-09-12T16:46:53;7.38;;;3.67;;
52031;SDS011;38044;45.148;39.604;2022-09-12T16:49:19;7.40;;;3.33;;
52031;SDS011;38044;45.148;39.604;2022-09-12T16:51:45;6.95;;;3.92;;
52031;SDS011;38044;45.148;39.604;2022-09-12T16:54:15;6.07;;;3.40;;
52031;SDS011;38044;45.148;39.604;2022-09-12T16:56:41;7.80;;;3.47;;
52031;SDS011;38044;45.148;39.604;2022-09-12T16:59:08;24.98;;;4.95;;
52031;SDS011;38044;45.148;39.604;2022-09-12T17:01:38;7.60;;;3.72;;
52031;SDS011;38044;45.148;39.604;2022-09-12T17:04:04;9.45;;;4.18;;
52031;SDS011;38044;45.148;39.604;2022-09-12T17:06:31;7.15;;;4.03;;
52031;SDS011;38044;45.148;39.604;2022-09-12T17:08:58;143.52;;;12.45;;
52031;SDS011;38044;45.148;39.604;2022-09-12T17:11:27;12.25;;;4.60;;
52031;SDS011;38044;45.148;39.604;2022-09-12T17:13:55;9.95;;;4.80;;
52031;SDS011;38044;45.148;39.604;2022-09-12T17:16:22;8.07;;;4.95;;
52031;SDS011;38044;45.148;39.604;2022-09-12T17:18:49;8.88;;;4.95;;
52031;SDS011;38044;45.148;39.604;2022-09-12T17:21:16;9.60;;;5.75;;
52031;SDS011;38044;45.148;39.604;2022-09-12T17:23:42;8.20;;;5.20;;
52031;SDS011;38044;45.148;39.604;2022-09-12T17:26:08;10.45;;;5.00;;
52031;SDS011;38044;45.148;39.604;2022-09-12T17:28:35;8.93;;;4.78;;
52031;SDS011;38044;45.148;39.604;2022-09-12T17:31:03;12.93;;;5.38;;
52031;SDS011;38044;45.148;39.604;2022-09-12T17:33:30;8.77;;;4.80;;